Time;durP1;ratioP1;P1;durP2;ratioP2;P2;SDS_P1;SDS_P2;PMS_P1;PMS_P2;Temp;Humidity;BMP_temperature;BMP_pressure;BME280_temperature;BME280_humidity;BME280_pressure;Samples;Min_cycle;Max_cycle;Signal;HPM_P1;HPM_P2
2021/10/06 00:01:17;;;;;;;0.20;0.20;;;;;;;3.28;58.75;100406.56;5051670;28;20495;-64
2021/10/06 00:03:42;;;;;;;2.05;0.70;;;;;;;3.25;58.85;100408.72;5052047;28;20048;-66
2021/10/06 00:06:08;;;;;;;0.20;0.20;;;;;;;3.21;59.07;100410.88;5051947;28;20047;-65
2021/10/06 00:08:34;;;;;;;0.20;0.20;;;;;;;3.18;58.99;100430.19;5051683;28;20055;-64
2021/10/06 00:11:00;;;;;;;0.20;0.20;;;;;;;3.11;59.24;100435.31;5051558;28;20052;-65
2021/10/06 00:13:25;;;;;;;0.20;0.20;;;;;;;3.10;59.15;100436.31;5051634;28;20131;-65
2021/10/06 00:15:51;;;;;;;0.47;0.20;;;;;;;3.12;59.02;100441.59;5051638;28;20049;-64
2021/10/06 00:18:17;;;;;;;1.08;0.30;;;;;;;3.11;59.05;100439.91;5052369;28;20411;-64
2021/10/06 00:20:43;;;;;;;0.30;0.20;;;;;;;3.11;59.11;100435.31;5055424;28;20073;-64
2021/10/06 00:23:09;;;;;;;0.20;0.20;;;;;;;3.09;59.11;100433.75;5056149;28;20165;-64
2021/10/06 00:25:34;;;;;;;0.22;0.22;;;;;;;3.05;59.21;100438.63;5055346;28;20044;-64
2021/10/06 00:28:00;;;;;;;0.20;0.20;;;;;;;2.99;59.18;100428.38;5055961;28;20088;-64
2021/10/06 00:30:26;;;;;;;0.20;0.20;;;;;;;2.97;59.26;100427.63;5054678;28;20044;-64
2021/10/06 00:32:52;;;;;;;0.40;0.40;;;;;;;2.94;59.26;100420.63;5055416;28;20048;-64
2021/10/06 00:35:18;;;;;;;0.20;0.20;;;;;;;2.93;59.46;100428.94;5054962;28;20041;-66
2021/10/06 00:37:44;;;;;;;0.20;0.20;;;;;;;2.86;59.40;100433.25;5054980;28;20052;-64
2021/10/06 00:40:10;;;;;;;0.40;0.40;;;;;;;2.79;59.65;100436.50;5055501;28;20041;-64
2021/10/06 00:42:38;;;;;;;0.30;0.30;;;;;;;2.70;59.85;100434.69;5055277;28;20143;-64
2021/10/06 00:45:05;;;;;;;0.25;0.25;;;;;;;2.62;59.89;100440.81;5053953;28;20534;-65
2021/10/06 00:47:30;;;;;;;0.30;0.30;;;;;;;2.58;60.22;100436.69;5052628;28;20073;-64
2021/10/06 00:49:56;;;;;;;0.20;0.20;;;;;;;2.54;60.14;100445.25;5054976;28;20088;-64
2021/10/06 00:52:22;;;;;;;0.50;0.50;;;;;;;2.48;60.13;100432.28;5055276;28;20470;-64
2021/10/06 00:54:48;;;;;;;0.20;0.20;;;;;;;2.39;60.23;100431.28;5054883;28;20036;-67
2021/10/06 00:57:14;;;;;;;1.48;0.43;;;;;;;2.33;60.29;100435.41;5055086;28;20057;-62
2021/10/06 00:59:40;;;;;;;0.30;0.30;;;;;;;2.25;60.42;100433.41;5054309;28;20470;-63
2021/10/06 01:02:06;;;;;;;0.22;0.22;;;;;;;2.17;60.61;100427.81;5048490;28;20406;-64
2021/10/06 01:04:32;;;;;;;0.65;0.65;;;;;;;2.10;60.63;100421.25;5037250;28;20736;-62
2021/10/06 01:06:58;;;;;;;0.20;0.20;;;;;;;2.06;60.67;100436.06;5035136;28;20041;-62
2021/10/06 01:09:30;;;;;;;0.20;0.20;;;;;;;1.98;60.85;100444.91;5016923;28;20048;-62
2021/10/06 01:11:57;;;;;;;0.20;0.20;;;;;;;1.92;60.90;100442.75;5034509;28;20054;-62
2021/10/06 01:14:24;;;;;;;0.22;0.22;;;;;;;1.91;60.86;100443.72;5034481;28;20069;-64
2021/10/06 01:16:51;;;;;;;0.20;0.20;;;;;;;1.88;61.09;100433.19;5034358;28;20049;-64
2021/10/06 01:19:29;;;;;;;0.28;0.28;;;;;;;1.85;61.25;100428.88;5034454;28;20041;-63
2021/10/06 01:21:56;;;;;;;0.10;0.10;;;;;;;1.83;61.01;100440.88;5034276;28;20052;-63
2021/10/06 01:24:24;;;;;;;0.50;0.50;;;;;;;1.82;60.82;100445.41;5034346;28;20412;-63
2021/10/06 01:26:50;;;;;;;0.10;0.10;;;;;;;1.79;61.00;100445.69;5034209;28;20072;-63
2021/10/06 01:29:16;;;;;;;0.20;0.20;;;;;;;1.77;60.96;100436.88;5033423;28;20144;-64
2021/10/06 01:31:46;;;;;;;0.30;0.30;;;;;;;1.73;60.79;100452.50;5034325;28;20458;-63
2021/10/06 01:34:12;;;;;;;0.20;0.20;;;;;;;1.69;61.20;100456.53;5034435;28;20049;-63
2021/10/06 01:36:39;;;;;;;0.10;0.10;;;;;;;1.66;61.08;100451.34;5034263;28;20364;-63
2021/10/06 01:39:07;;;;;;;0.32;0.32;;;;;;;1.66;61.12;100448.63;5033117;28;20047;-63
2021/10/06 01:41:36;;;;;;;0.25;0.25;;;;;;;1.65;61.27;100455.06;5033085;28;20042;-63
2021/10/06 01:44:03;;;;;;;0.30;0.30;;;;;;;1.61;61.19;100456.34;5032894;28;20492;-65
2021/10/06 01:46:29;;;;;;;0.20;0.20;;;;;;;1.55;61.15;100468.56;5033110;28;20037;-64
2021/10/06 01:48:55;;;;;;;0.20;0.20;;;;;;;1.54;61.29;100463.28;5033817;28;20045;-66
2021/10/06 01:51:21;;;;;;;0.25;0.25;;;;;;;1.51;61.42;100464.41;5033885;28;20049;-65
2021/10/06 01:53:47;;;;;;;0.47;0.47;;;;;;;1.50;61.29;100451.00;5033794;28;20052;-64
2021/10/06 01:56:13;;;;;;;0.20;0.20;;;;;;;1.46;61.38;100444.13;5033977;28;20092;-67
2021/10/06 01:58:38;;;;;;;0.20;0.20;;;;;;;1.45;61.39;100450.56;5032579;28;20041;-66
2021/10/06 02:01:04;;;;;;;0.20;0.20;;;;;;;1.48;61.27;100448.44;5041328;28;20087;-65
2021/10/06 02:03:30;;;;;;;0.30;0.30;;;;;;;1.51;61.04;100463.56;5035894;28;20072;-63
2021/10/06 02:05:57;;;;;;;0.20;0.20;;;;;;;1.50;61.13;100468.13;5053581;28;20458;-64
2021/10/06 02:08:23;;;;;;;1.52;0.77;;;;;;;1.49;61.31;100461.00;5053161;28;20041;-67
2021/10/06 02:10:49;;;;;;;1.08;0.73;;;;;;;1.45;61.31;100459.53;5053306;28;20132;-64
2021/10/06 02:13:15;;;;;;;0.85;0.45;;;;;;;1.40;61.48;100459.94;5053290;28;20080;-64
2021/10/06 02:15:41;;;;;;;0.20;0.20;;;;;;;1.36;61.52;100461.19;5053156;28;20107;-61
2021/10/06 02:18:07;;;;;;;0.20;0.20;;;;;;;1.35;61.55;100456.78;5052918;28;20045;-64
2021/10/06 02:20:33;;;;;;;0.45;0.45;;;;;;;1.38;61.59;100463.78;5035448;28;20037;-63
2021/10/06 02:23:00;;;;;;;0.43;0.43;;;;;;;1.39;61.62;100460.94;5053045;28;20045;-63
2021/10/06 02:25:26;;;;;;;0.25;0.25;;;;;;;1.43;61.47;100461.53;5052684;28;20044;-65
2021/10/06 02:27:52;;;;;;;0.25;0.25;;;;;;;1.48;61.33;100469.25;5053067;28;20087;-63
2021/10/06 02:30:18;;;;;;;0.20;0.20;;;;;;;1.53;61.16;100467.84;5052742;28;20041;-63
2021/10/06 02:32:44;;;;;;;0.50;0.50;;;;;;;1.58;61.03;100475.56;5053225;28;20117;-64
2021/10/06 02:35:10;;;;;;;0.20;0.20;;;;;;;1.63;60.85;100470.56;5052749;28;20084;-63
2021/10/06 02:37:38;;;;;;;0.30;0.30;;;;;;;1.67;60.77;100469.31;5052591;28;20080;-62
2021/10/06 02:40:09;;;;;;;6.97;0.40;;;;;;;1.70;60.87;100469.03;5053159;28;20139;-64
2021/10/06 02:42:36;;;;;;;0.20;0.20;;;;;;;1.71;60.81;100468.06;5052262;28;20037;-64
2021/10/06 02:45:02;;;;;;;0.80;0.30;;;;;;;1.74;60.80;100466.94;5052936;28;20132;-65
2021/10/06 02:47:28;;;;;;;1.25;1.15;;;;;;;1.79;60.75;100480.91;5052574;28;20067;-63
2021/10/06 02:49:54;;;;;;;0.20;0.20;;;;;;;1.83;60.57;100485.06;5052986;28;20495;-64
2021/10/06 02:52:20;;;;;;;0.20;0.20;;;;;;;1.86;60.66;100483.94;5052471;28;20051;-63
2021/10/06 02:54:46;;;;;;;1.48;0.68;;;;;;;1.92;60.48;100484.22;5052524;28;20051;-63
2021/10/06 02:57:11;;;;;;;0.68;0.60;;;;;;;2.02;60.33;100478.84;5052494;28;20068;-64
2021/10/06 02:59:39;;;;;;;0.40;0.40;;;;;;;2.12;59.90;100486.13;5044708;28;20075;-64
2021/10/06 03:02:05;;;;;;;0.20;0.20;;;;;;;2.18;60.24;100482.88;5041192;28;20084;-65
2021/10/06 03:04:30;;;;;;;0.30;0.30;;;;;;;2.27;60.12;100482.03;5040046;28;20495;-67
2021/10/06 03:06:56;;;;;;;0.73;0.73;;;;;;;2.37;59.75;100471.19;5041911;28;20392;-65
2021/10/06 03:09:22;;;;;;;0.20;0.20;;;;;;;2.58;59.47;100473.81;5040582;28;20049;-63
2021/10/06 03:11:48;;;;;;;0.22;0.22;;;;;;;3.09;58.30;100471.75;5040125;28;20049;-64
2021/10/06 03:14:14;;;;;;;0.50;0.50;;;;;;;3.19;58.19;100471.75;5041881;28;20562;-63
2021/10/06 03:16:40;;;;;;;0.22;0.22;;;;;;;3.22;58.37;100480.44;5040466;28;20038;-64
2021/10/06 03:19:05;;;;;;;0.43;0.30;;;;;;;3.23;58.44;100484.03;5040832;28;20059;-64
2021/10/06 03:21:31;;;;;;;0.30;0.30;;;;;;;3.22;58.62;100482.31;5041546;28;20480;-63
2021/10/06 03:23:57;;;;;;;0.30;0.30;;;;;;;3.26;58.46;100489.16;5039800;28;20072;-62
2021/10/06 03:26:23;;;;;;;0.52;0.52;;;;;;;3.33;58.63;100483.00;5041109;28;20037;-63
2021/10/06 03:28:48;;;;;;;0.20;0.20;;;;;;;3.41;58.40;100482.25;5040931;28;20041;-63
2021/10/06 03:31:15;;;;;;;0.20;0.20;;;;;;;3.51;58.30;100477.66;5039616;28;20041;-64
2021/10/06 03:33:40;;;;;;;0.30;0.28;;;;;;;3.66;58.18;100477.16;5041244;28;20149;-62
2021/10/06 03:36:06;;;;;;;0.20;0.20;;;;;;;3.77;57.87;100468.84;5040823;28;20124;-63
2021/10/06 03:38:32;;;;;;;0.20;0.20;;;;;;;3.83;57.95;100481.81;5039617;28;20566;-65
2021/10/06 03:40:58;;;;;;;0.20;0.20;;;;;;;3.90;57.84;100486.66;5041327;28;20045;-64
2021/10/06 03:43:25;;;;;;;0.55;0.55;;;;;;;3.99;57.84;100489.31;5040733;28;20048;-63
2021/10/06 03:45:51;;;;;;;0.10;0.10;;;;;;;4.15;57.56;100494.09;5039855;28;20119;-63
2021/10/06 03:48:17;;;;;;;0.20;0.20;;;;;;;4.30;57.34;100501.72;5041238;28;20140;-62
2021/10/06 03:50:44;;;;;;;0.32;0.32;;;;;;;4.41;57.22;100495.25;5037802;28;20038;-63
2021/10/06 03:53:11;;;;;;;0.20;0.20;;;;;;;4.49;57.24;100493.47;5041474;28;20044;-64
2021/10/06 03:55:39;;;;;;;0.20;0.20;;;;;;;4.59;57.06;100487.09;5046388;28;20096;-62
2021/10/06 03:58:05;;;;;;;2.10;0.38;;;;;;;4.65;57.10;100497.34;5044375;28;20032;-62
2021/10/06 04:00:31;;;;;;;0.43;0.43;;;;;;;4.66;57.08;100483.59;5044412;28;20484;-63
2021/10/06 04:02:56;;;;;;;1.35;0.50;;;;;;;4.61;57.40;100490.50;5042902;28;20037;-64
2021/10/06 04:05:22;;;;;;;0.20;0.20;;;;;;;4.56;57.51;100488.25;5043950;28;20033;-67
2021/10/06 04:07:48;;;;;;;0.20;0.20;;;;;;;4.54;57.69;100499.28;5042714;28;20107;-63
2021/10/06 04:10:14;;;;;;;0.30;0.30;;;;;;;4.57;57.62;100495.41;5043069;28;20069;-64
2021/10/06 04:12:40;;;;;;;1.85;0.50;;;;;;;4.61;57.73;100509.53;5037546;28;20057;-63
2021/10/06 04:15:06;;;;;;;0.20;0.20;;;;;;;4.65;57.57;100506.38;5035851;28;20049;-63
2021/10/06 04:17:32;;;;;;;0.20;0.20;;;;;;;4.72;57.54;100514.75;5035449;28;20511;-63
2021/10/06 04:19:58;;;;;;;0.17;0.17;;;;;;;4.86;57.30;100513.38;5035755;28;20042;-64
2021/10/06 04:22:23;;;;;;;8.07;0.90;;;;;;;4.95;57.16;100507.00;5035449;28;20575;-65
2021/10/06 04:24:49;;;;;;;0.20;0.20;;;;;;;5.02;57.06;100505.34;5035252;28;20125;-63
2021/10/06 04:27:15;;;;;;;0.75;0.75;;;;;;;5.07;57.04;100513.06;5033126;28;20119;-66
2021/10/06 04:29:41;;;;;;;0.32;0.32;;;;;;;5.09;57.19;100511.00;5032508;28;20042;-63
2021/10/06 04:32:07;;;;;;;1.75;0.55;;;;;;;5.17;57.12;100513.81;5032980;28;20600;-64
2021/10/06 04:34:33;;;;;;;0.20;0.20;;;;;;;5.31;56.68;100519.69;5032931;28;20046;-63
2021/10/06 04:36:58;;;;;;;1.40;1.30;;;;;;;5.42;56.61;100519.44;5016076;28;20128;-64
2021/10/06 04:39:24;;;;;;;0.20;0.20;;;;;;;5.44;56.70;100517.41;5034333;28;20466;-62
2021/10/06 04:41:50;;;;;;;0.68;0.68;;;;;;;5.56;56.59;100501.66;5035006;28;20579;-62
2021/10/06 04:44:15;;;;;;;0.30;0.30;;;;;;;5.71;56.37;100507.34;5035169;28;20053;-63
2021/10/06 04:46:41;;;;;;;0.68;0.68;;;;;;;5.82;56.21;100498.06;5034870;28;20064;-63
2021/10/06 04:49:07;;;;;;;0.22;0.22;;;;;;;5.88;56.10;100508.31;5034723;28;20048;-62
2021/10/06 04:51:33;;;;;;;0.30;0.30;;;;;;;5.91;56.18;100510.72;5035320;28;20488;-63
2021/10/06 04:53:59;;;;;;;0.40;0.40;;;;;;;5.87;56.24;100512.91;5035479;28;20044;-62
2021/10/06 04:56:24;;;;;;;1.10;0.40;;;;;;;5.88;56.32;100521.94;5034865;28;20124;-62
2021/10/06 04:58:50;;;;;;;0.20;0.20;;;;;;;5.91;56.38;100519.72;5034816;28;20500;-63
2021/10/06 05:01:16;;;;;;;0.50;0.50;;;;;;;5.95;56.32;100518.41;5034856;28;20049;-64
2021/10/06 05:03:42;;;;;;;0.98;0.52;;;;;;;6.00;56.15;100515.22;5033803;28;20159;-63
2021/10/06 05:06:08;;;;;;;0.40;0.40;;;;;;;6.08;56.24;100507.06;5016674;28;20515;-64
2021/10/06 05:08:34;;;;;;;0.28;0.28;;;;;;;6.12;56.07;100516.66;5035029;28;20077;-64
2021/10/06 05:11:00;;;;;;;9.80;0.98;;;;;;;6.18;56.01;100512.38;5034548;28;20051;-62
2021/10/06 05:13:26;;;;;;;0.20;0.20;;;;;;;6.16;55.97;100517.16;5034888;28;20052;-65
2021/10/06 05:15:51;;;;;;;14.55;1.20;;;;;;;6.19;56.18;100518.72;5032060;28;20042;-62
2021/10/06 05:18:17;;;;;;;0.55;0.55;;;;;;;6.22;56.02;100512.94;5034393;28;20515;-63
2021/10/06 05:20:43;;;;;;;0.40;0.40;;;;;;;6.25;55.87;100520.78;5034536;28;20384;-63
2021/10/06 05:23:10;;;;;;;0.30;0.30;;;;;;;6.33;55.93;100518.09;5034394;28;20081;-62
2021/10/06 05:25:36;;;;;;;0.30;0.30;;;;;;;6.41;55.63;100507.19;5034680;28;20133;-64
2021/10/06 05:28:03;;;;;;;0.52;0.52;;;;;;;6.44;55.51;100503.28;5034719;28;20056;-64
2021/10/06 05:30:29;;;;;;;4.13;0.50;;;;;;;6.44;55.64;100506.84;5033426;28;20128;-63
2021/10/06 05:32:55;;;;;;;0.63;0.32;;;;;;;6.49;55.60;100507.22;5034659;28;20089;-62
2021/10/06 05:35:20;;;;;;;0.30;0.30;;;;;;;6.56;55.57;100501.94;5034125;28;20131;-63
2021/10/06 05:37:47;;;;;;;4.25;1.13;;;;;;;6.68;55.36;100499.72;5034349;28;20109;-63
2021/10/06 05:40:15;;;;;;;0.95;0.95;;;;;;;6.76;55.28;100499.75;5034286;28;20045;-64
2021/10/06 05:42:41;;;;;;;0.25;0.25;;;;;;;6.83;55.21;100505.38;5034271;28;20045;-63
2021/10/06 05:45:07;;;;;;;0.60;0.60;;;;;;;6.84;55.09;100502.47;5033806;28;20045;-63
2021/10/06 05:47:33;;;;;;;2.42;0.77;;;;;;;6.88;55.07;100513.94;5033870;28;20053;-63
2021/10/06 05:50:00;;;;;;;0.52;0.52;;;;;;;6.96;54.99;100515.81;5034444;28;20041;-64
2021/10/06 05:52:26;;;;;;;0.40;0.40;;;;;;;6.83;55.18;100508.97;5034077;28;20041;-64
2021/10/06 05:54:51;;;;;;;0.55;0.55;;;;;;;6.74;55.55;100507.25;5034218;28;20404;-63
2021/10/06 05:57:17;;;;;;;0.43;0.43;;;;;;;6.72;55.56;100509.31;5034187;28;20049;-63
2021/10/06 05:59:43;;;;;;;0.65;0.65;;;;;;;6.65;55.71;100511.00;5033507;28;20095;-63
2021/10/06 06:02:08;;;;;;;0.50;0.50;;;;;;;6.59;55.77;100503.47;5033481;28;20049;-63
2021/10/06 06:04:34;;;;;;;0.63;0.50;;;;;;;6.55;55.85;100497.50;5034040;28;20033;-62
2021/10/06 06:07:01;;;;;;;0.93;0.57;;;;;;;6.58;55.76;100508.09;5034024;28;20052;-63
2021/10/06 06:09:27;;;;;;;0.93;0.88;;;;;;;6.58;55.63;100507.22;5033894;28;20507;-64
2021/10/06 06:11:53;;;;;;;0.52;0.52;;;;;;;6.73;55.36;100518.34;5015736;28;20081;-62
2021/10/06 06:14:19;;;;;;;0.20;0.20;;;;;;;6.90;55.06;100508.31;5033432;28;20049;-62
2021/10/06 06:16:45;;;;;;;0.20;0.20;;;;;;;7.04;54.75;100509.50;5034226;28;20409;-62
2021/10/06 06:19:10;;;;;;;0.20;0.20;;;;;;;7.09;54.65;100494.31;5033352;28;20041;-62
2021/10/06 06:21:36;;;;;;;0.30;0.30;;;;;;;7.11;54.58;100496.88;5033841;28;20050;-62
2021/10/06 06:24:03;;;;;;;0.20;0.20;;;;;;;7.08;54.75;100494.47;5033666;28;20050;-63
2021/10/06 06:26:29;;;;;;;0.32;0.32;;;;;;;7.05;54.89;100498.41;5033594;28;20042;-63
2021/10/06 06:28:54;;;;;;;0.45;0.45;;;;;;;6.99;55.00;100490.88;5032550;28;20068;-63
2021/10/06 06:31:20;;;;;;;0.73;0.73;;;;;;;6.93;55.03;100494.31;5033525;28;20038;-63
2021/10/06 06:33:46;;;;;;;0.75;0.75;;;;;;;6.87;55.19;100495.84;5033653;28;20080;-63
2021/10/06 06:36:12;;;;;;;0.77;0.77;;;;;;;6.77;55.46;100500.59;5033373;28;20045;-64
2021/10/06 06:38:38;;;;;;;0.30;0.30;;;;;;;6.56;55.69;100485.56;5033110;28;20046;-63
2021/10/06 06:41:04;;;;;;;0.88;0.88;;;;;;;6.45;56.08;100494.09;5033074;28;20041;-63
2021/10/06 06:43:31;;;;;;;0.68;0.68;;;;;;;6.32;56.23;100494.56;5033085;28;20053;-62
2021/10/06 06:45:57;;;;;;;0.30;0.30;;;;;;;6.21;56.49;100500.28;5033522;28;20041;-64
2021/10/06 06:48:23;;;;;;;1.58;1.30;;;;;;;6.03;56.68;100497.69;5032961;28;20041;-62
2021/10/06 06:50:53;;;;;;;0.80;0.57;;;;;;;5.89;56.94;100499.97;5033251;28;20045;-63
2021/10/06 06:53:26;;;;;;;0.50;0.35;;;;;;;5.79;57.15;100491.91;5033193;28;20125;-63
2021/10/06 06:55:56;;;;;;;4.85;0.77;;;;;;;5.71;57.19;100493.72;5032852;28;20124;-63
2021/10/06 06:58:23;;;;;;;0.30;0.30;;;;;;;5.64;57.19;100492.66;5032680;28;20041;-62
2021/10/06 07:00:49;;;;;;;4.07;0.47;;;;;;;5.65;57.20;100481.59;5032455;28;20124;-63
2021/10/06 07:03:16;;;;;;;0.80;0.70;;;;;;;5.66;57.10;100477.88;5033225;28;20037;-62
2021/10/06 07:05:42;;;;;;;0.80;0.57;;;;;;;5.66;57.12;100479.75;5032639;28;20404;-64
2021/10/06 07:08:08;;;;;;;1.17;1.00;;;;;;;5.72;56.67;100479.09;5032401;28;20212;-63
2021/10/06 07:10:35;;;;;;;6.28;1.38;;;;;;;5.83;56.53;100476.09;5032342;28;20124;-63
2021/10/06 07:13:01;;;;;;;1.38;0.95;;;;;;;6.00;56.24;100463.41;5032288;28;20053;-63
2021/10/06 07:15:27;;;;;;;0.30;0.30;;;;;;;6.19;55.78;100467.72;5033227;28;20056;-64
2021/10/06 07:17:52;;;;;;;0.43;0.43;;;;;;;6.38;55.42;100474.78;5032700;28;20468;-62
2021/10/06 07:20:18;;;;;;;0.52;0.52;;;;;;;6.61;55.01;100474.13;5032598;28;20568;-64
2021/10/06 07:22:48;;;;;;;0.30;0.30;;;;;;;6.84;54.51;100468.88;5014510;28;20041;-62
2021/10/06 07:25:16;;;;;;;0.30;0.30;;;;;;;7.01;54.32;100464.28;5029269;28;20132;-64
2021/10/06 07:27:41;;;;;;;1.15;0.68;;;;;;;7.21;54.01;100466.66;5031848;28;20056;-63
2021/10/06 07:30:08;;;;;;;4.47;1.10;;;;;;;7.39;53.73;100472.78;5032118;28;20049;-62
2021/10/06 07:32:34;;;;;;;0.85;0.57;;;;;;;7.51;53.64;100476.00;5032724;28;20096;-64
2021/10/06 07:35:00;;;;;;;0.40;0.40;;;;;;;7.68;53.37;100466.72;5032325;28;20045;-64
2021/10/06 07:37:26;;;;;;;0.35;0.35;;;;;;;7.77;53.55;100469.44;5032434;28;20103;-66
2021/10/06 07:39:52;;;;;;;2.38;1.05;;;;;;;7.84;53.40;100473.19;5032132;28;20068;-63
2021/10/06 07:42:18;;;;;;;1.25;1.15;;;;;;;7.86;53.62;100471.09;5031787;28;20496;-62
2021/10/06 07:44:44;;;;;;;0.55;0.55;;;;;;;7.93;53.50;100468.53;5032416;28;20041;-63
2021/10/06 07:47:09;;;;;;;0.65;0.65;;;;;;;7.95;53.31;100477.41;5032394;28;20181;-63
2021/10/06 07:49:35;;;;;;;0.82;0.82;;;;;;;8.09;53.46;100473.09;5032281;28;20548;-63
2021/10/06 07:52:01;;;;;;;1.27;0.68;;;;;;;8.12;53.27;100470.84;5032174;28;20041;-64
2021/10/06 07:54:27;;;;;;;0.40;0.40;;;;;;;8.09;53.48;100467.63;5032181;28;20041;-62
2021/10/06 07:56:53;;;;;;;0.55;0.55;;;;;;;8.07;53.41;100479.56;5032418;28;20068;-64
2021/10/06 07:59:18;;;;;;;0.30;0.30;;;;;;;8.06;53.62;100475.13;5031713;28;20048;-64
2021/10/06 08:01:44;;;;;;;0.68;0.68;;;;;;;8.06;53.72;100472.38;5032077;28;20052;-62
2021/10/06 08:04:10;;;;;;;1.52;1.42;;;;;;;8.09;53.70;100479.41;5032454;28;20502;-63
2021/10/06 08:06:36;;;;;;;0.20;0.20;;;;;;;8.12;53.49;100472.72;5032027;28;20050;-65
2021/10/06 08:09:05;;;;;;;0.22;0.22;;;;;;;8.14;53.49;100470.66;5031649;28;20057;-65
2021/10/06 08:11:31;;;;;;;0.60;0.60;;;;;;;8.18;53.34;100478.31;5031580;28;20072;-63
2021/10/06 08:13:57;;;;;;;0.65;0.65;;;;;;;8.18;53.51;100481.06;5031640;28;20053;-63
2021/10/06 08:16:23;;;;;;;0.52;0.52;;;;;;;8.21;53.52;100474.38;5032547;28;20477;-65
2021/10/06 08:18:48;;;;;;;0.93;0.60;;;;;;;8.19;53.55;100476.47;5031790;28;20033;-64
2021/10/06 08:21:14;;;;;;;0.35;0.35;;;;;;;8.15;53.46;100480.56;5031652;28;20052;-63
2021/10/06 08:23:40;;;;;;;0.32;0.32;;;;;;;8.05;53.74;100488.97;5014007;28;20033;-64
2021/10/06 08:26:06;;;;;;;0.60;0.60;;;;;;;7.98;53.93;100482.50;5031927;28;20527;-64
2021/10/06 08:28:32;;;;;;;0.20;0.20;;;;;;;7.95;53.87;100485.59;5031451;28;20123;-63
2021/10/06 08:30:58;;;;;;;0.68;0.68;;;;;;;7.97;53.96;100491.78;5031415;28;20068;-64
2021/10/06 08:33:23;;;;;;;0.43;0.43;;;;;;;7.93;53.99;100480.31;5032126;28;20100;-63
2021/10/06 08:35:49;;;;;;;0.25;0.25;;;;;;;7.78;54.15;100479.34;5031472;28;20049;-61
2021/10/06 08:38:16;;;;;;;3.30;0.40;;;;;;;7.76;54.19;100484.13;5013822;28;20043;-64
2021/10/06 08:40:42;;;;;;;0.30;0.30;;;;;;;7.68;54.31;100483.13;5034594;28;20103;-63
2021/10/06 08:43:10;;;;;;;1.98;0.35;;;;;;;7.77;54.16;100483.94;5035602;28;20068;-62
2021/10/06 08:45:37;;;;;;;2.72;0.47;;;;;;;7.84;53.81;100482.22;5035375;28;20055;-64
2021/10/06 08:48:08;;;;;;;1.85;0.43;;;;;;;7.84;53.84;100484.13;5035092;28;20041;-63
2021/10/06 08:50:34;;;;;;;0.20;0.20;;;;;;;7.81;53.88;100481.75;5034950;28;20038;-62
2021/10/06 08:53:00;;;;;;;0.73;0.73;;;;;;;7.79;53.76;100491.97;5035234;28;20504;-62
2021/10/06 08:55:30;;;;;;;0.82;0.52;;;;;;;7.83;53.95;100488.75;5034971;28;20046;-64
2021/10/06 08:58:02;;;;;;;0.35;0.35;;;;;;;7.82;53.90;100489.75;5034929;28;20550;-63
2021/10/06 09:00:29;;;;;;;1.55;0.63;;;;;;;7.78;54.07;100484.81;5034688;28;20492;-62
2021/10/06 09:02:55;;;;;;;1.38;0.85;;;;;;;7.71;54.12;100479.19;5034616;28;20092;-63
2021/10/06 09:05:22;;;;;;;0.28;0.28;;;;;;;7.71;54.16;100473.72;5034647;28;20072;-64
2021/10/06 09:08:01;;;;;;;0.30;0.30;;;;;;;7.74;54.01;100472.53;5034807;28;20051;-64
2021/10/06 09:10:29;;;;;;;0.20;0.20;;;;;;;7.66;54.15;100471.50;5035064;28;20049;-63
2021/10/06 09:13:05;;;;;;;0.20;0.20;;;;;;;7.64;54.20;100475.44;5034694;28;20054;-63
2021/10/06 09:15:51;;;;;;;1.52;0.50;;;;;;;7.72;54.05;100473.53;5034743;28;20496;-64
2021/10/06 09:18:21;;;;;;;0.22;0.22;;;;;;;7.80;53.79;100472.69;5034720;28;20213;-64
2021/10/06 09:20:47;;;;;;;2.15;0.68;;;;;;;7.81;53.90;100473.53;5034476;28;20050;-63
2021/10/06 09:23:16;;;;;;;0.20;0.20;;;;;;;7.79;53.83;100461.91;5034931;28;20456;-64
2021/10/06 09:26:00;;;;;;;1.75;0.57;;;;;;;7.80;53.90;100460.88;5034729;28;20041;-63
2021/10/06 09:28:30;;;;;;;0.20;0.20;;;;;;;7.77;54.04;100469.44;5034062;28;20496;-65
2021/10/06 09:31:26;;;;;;;1.80;0.70;;;;;;;7.58;54.24;100468.78;5033793;28;20049;-64
2021/10/06 09:33:55;;;;;;;0.32;0.22;;;;;;;7.45;54.55;100465.75;5034640;28;20100;-62
2021/10/06 09:36:29;;;;;;;0.55;0.40;;;;;;;7.42;54.58;100463.38;5034035;28;20088;-63
2021/10/06 09:39:06;;;;;;;0.35;0.35;;;;;;;7.43;54.72;100467.81;5034290;28;20100;-63
2021/10/06 09:41:46;;;;;;;0.22;0.22;;;;;;;7.41;54.67;100469.88;5034719;28;20076;-63
2021/10/06 09:44:23;;;;;;;1.10;0.73;;;;;;;7.47;54.55;100463.72;5033844;28;20037;-64
2021/10/06 09:47:00;;;;;;;0.57;0.57;;;;;;;7.48;54.45;100462.66;5033955;28;20041;-62
2021/10/06 09:49:28;;;;;;;0.20;0.20;;;;;;;7.42;54.51;100456.03;5034000;28;20057;-67
2021/10/06 09:52:14;;;;;;;0.15;0.15;;;;;;;7.40;54.64;100455.34;5033452;28;20034;-64
2021/10/06 09:54:41;;;;;;;0.20;0.20;;;;;;;7.37;54.57;100456.53;5034224;28;20524;-65
2021/10/06 09:57:07;;;;;;;0.20;0.20;;;;;;;7.37;54.67;100458.44;5034020;28;20053;-62
2021/10/06 09:59:34;;;;;;;0.20;0.20;;;;;;;7.36;54.68;100457.59;5033161;28;20041;-63
2021/10/06 10:02:00;;;;;;;0.20;0.20;;;;;;;7.30;54.81;100458.28;5040686;28;20073;-65
2021/10/06 10:04:28;;;;;;;0.10;0.10;;;;;;;7.27;54.84;100455.88;5051750;28;20135;-64
2021/10/06 10:06:55;;;;;;;0.20;0.20;;;;;;;7.29;54.80;100461.19;5035424;28;20045;-64
2021/10/06 10:09:21;;;;;;;0.20;0.20;;;;;;;7.31;54.88;100456.41;5040219;28;20042;-65
2021/10/06 10:11:47;;;;;;;0.90;0.65;;;;;;;7.34;54.75;100453.31;5038101;28;20120;-64
2021/10/06 10:14:13;;;;;;;0.25;0.25;;;;;;;7.35;54.56;100455.88;5043295;28;20420;-65
2021/10/06 10:16:39;;;;;;;0.35;0.35;;;;;;;7.35;54.50;100461.34;5038819;28;20087;-62
2021/10/06 10:19:12;;;;;;;0.30;0.30;;;;;;;7.38;54.56;100451.94;5040160;28;20037;-65
2021/10/06 10:21:43;;;;;;;0.20;0.20;;;;;;;7.36;54.58;100446.66;5040870;28;20040;-64
2021/10/06 10:24:14;;;;;;;0.30;0.30;;;;;;;7.36;54.58;100451.25;5040328;28;20041;-63
2021/10/06 10:26:54;;;;;;;0.20;0.20;;;;;;;7.35;54.60;100453.13;5040903;28;20420;-63
2021/10/06 10:29:43;;;;;;;2.63;1.27;;;;;;;7.24;54.88;100448.03;5038316;28;20124;-63
2021/10/06 10:32:19;;;;;;;3.22;0.95;;;;;;;7.13;55.12;100448.41;5020417;28;20183;-62
2021/10/06 10:35:00;;;;;;;0.20;0.20;;;;;;;7.11;55.15;100442.22;5039745;28;20038;-64
2021/10/06 10:37:47;;;;;;;0.20;0.20;;;;;;;7.14;55.14;100447.34;5040355;28;20041;-65
2021/10/06 10:40:33;;;;;;;0.40;0.40;;;;;;;7.17;54.94;100447.03;5042493;28;20050;-63
2021/10/06 10:43:14;;;;;;;14.63;0.95;;;;;;;7.15;54.90;100446.34;5040043;28;20033;-63
2021/10/06 10:45:59;;;;;;;0.30;0.30;;;;;;;7.11;55.13;100447.69;5024038;28;20086;-66
2021/10/06 10:49:01;;;;;;;0.20;0.20;;;;;;;7.06;55.19;100442.75;5040241;28;20499;-64
2021/10/06 10:51:46;;;;;;;5.15;0.50;;;;;;;7.06;55.22;100439.19;5037918;28;20033;-68
2021/10/06 10:54:39;;;;;;;0.28;0.28;;;;;;;7.04;55.24;100441.22;5044695;28;20045;-65
2021/10/06 10:57:29;;;;;;;0.17;0.17;;;;;;;7.06;55.45;100440.03;5041908;28;20041;-64
2021/10/06 10:59:57;;;;;;;0.50;0.50;;;;;;;7.05;55.27;100438.31;5039213;28;20048;-64
2021/10/06 11:02:28;;;;;;;0.20;0.20;;;;;;;7.07;55.09;100443.63;5040969;28;20041;-63
2021/10/06 11:04:57;;;;;;;1.10;0.40;;;;;;;7.07;55.28;100435.44;5042689;28;20559;-66
2021/10/06 11:07:23;;;;;;;0.43;0.43;;;;;;;7.05;55.32;100440.19;5041696;28;20447;-62
2021/10/06 11:10:01;;;;;;;0.47;0.43;;;;;;;7.01;55.41;100443.28;5040946;28;20041;-63
2021/10/06 11:12:29;;;;;;;0.20;0.20;;;;;;;6.97;55.49;100436.44;5040965;28;20045;-63
2021/10/06 11:15:20;;;;;;;0.75;0.47;;;;;;;6.94;55.57;100442.25;5041478;28;20399;-63
2021/10/06 11:18:16;;;;;;;0.20;0.20;;;;;;;6.93;55.59;100443.25;5041170;28;20044;-65
2021/10/06 11:20:58;;;;;;;0.20;0.20;;;;;;;6.91;55.70;100445.31;5041422;28;20037;-65
2021/10/06 11:23:30;;;;;;;0.30;0.30;;;;;;;6.91;55.68;100445.31;5041957;28;20045;-65
2021/10/06 11:26:17;;;;;;;1.35;0.50;;;;;;;6.93;55.70;100445.16;5038686;28;20037;-64
2021/10/06 11:28:51;;;;;;;0.40;0.40;;;;;;;6.91;55.77;100444.47;5021527;28;20037;-63
2021/10/06 11:31:23;;;;;;;0.20;0.20;;;;;;;6.87;55.85;100451.31;5037248;28;20045;-63
2021/10/06 11:33:49;;;;;;;0.60;0.60;;;;;;;6.79;56.07;100444.81;5031985;28;20103;-64
2021/10/06 11:36:21;;;;;;;0.50;0.50;;;;;;;6.70;56.33;100440.38;5032402;28;20038;-63
2021/10/06 11:38:55;;;;;;;0.20;0.20;;;;;;;6.72;56.34;100443.78;5032431;28;20037;-64